createdAt,value
2022-12-11T00:00:38.016Z,13.07
2022-12-11T00:03:04.507Z,14.30
2022-12-11T00:05:30.920Z,16.17
2022-12-11T00:07:58.028Z,15.43
2022-12-11T00:10:24.908Z,15.48
2022-12-11T00:12:51.341Z,15.02
2022-12-11T00:15:17.894Z,14.47
2022-12-11T00:17:44.374Z,15.40
2022-12-11T00:20:11.320Z,15.27
2022-12-11T00:22:37.791Z,13.85
2022-12-11T00:25:04.651Z,14.63
2022-12-11T00:27:31.038Z,15.10
2022-12-11T00:29:57.421Z,14.38
2022-12-11T00:32:23.832Z,13.77
2022-12-11T00:34:50.228Z,14.02
2022-12-11T00:37:17.387Z,13.88
2022-12-11T00:39:43.945Z,14.30
2022-12-11T00:42:10.386Z,13.20
2022-12-11T00:44:36.839Z,13.95
2022-12-11T00:47:03.799Z,13.60
2022-12-11T00:49:30.201Z,11.90
2022-12-11T00:51:56.635Z,10.60
2022-12-11T00:54:23.149Z,11.18
2022-12-11T00:56:49.605Z,11.23
2022-12-11T00:59:16.011Z,10.73
2022-12-11T01:01:42.612Z,12.20
2022-12-11T01:04:09.135Z,12.70
2022-12-11T01:06:35.546Z,11.63
2022-12-11T01:09:20.378Z,11.98
2022-12-11T01:11:46.770Z,12.02
2022-12-11T01:14:14.232Z,12.05
2022-12-11T01:16:40.726Z,11.93
2022-12-11T01:19:07.193Z,12.43
2022-12-11T01:21:33.591Z,11.10
2022-12-11T01:24:00.080Z,12.02
2022-12-11T01:26:26.719Z,11.25
2022-12-11T01:28:53.222Z,11.97
2022-12-11T01:31:21.014Z,12.02
2022-12-11T01:33:47.535Z,11.70
2022-12-11T01:36:16.568Z,11.75
2022-12-11T01:38:43.082Z,10.63
2022-12-11T01:41:10.507Z,12.20
2022-12-11T01:44:15.333Z,10.55
2022-12-11T01:46:42.867Z,10.23
2022-12-11T01:49:12.941Z,10.25
2022-12-11T01:51:49.050Z,10.70
2022-12-11T01:54:19.011Z,9.53
2022-12-11T01:56:46.702Z,11.05
2022-12-11T01:59:17.786Z,9.57
2022-12-11T02:01:59.427Z,10.10
2022-12-11T02:04:26.458Z,9.52
2022-12-11T02:06:53.369Z,9.97
2022-12-11T02:09:26.807Z,10.10
2022-12-11T02:12:20.609Z,10.25
2022-12-11T02:15:13.334Z,10.00
2022-12-11T02:18:01.938Z,10.80
2022-12-11T02:20:31.391Z,10.93
2022-12-11T02:23:07.298Z,10.75
2022-12-11T02:26:15.959Z,10.20
2022-12-11T02:28:47.092Z,11.50
2022-12-11T02:31:19.447Z,10.63
2022-12-11T02:33:49.712Z,10.63
2022-12-11T02:36:18.914Z,10.70
2022-12-11T02:38:50.694Z,11.40
2022-12-11T02:41:19.459Z,10.70
2022-12-11T02:43:47.988Z,11.25
2022-12-11T02:46:18.279Z,11.50
2022-12-11T02:48:47.190Z,11.65
2022-12-11T02:51:15.499Z,10.77
2022-12-11T02:53:44.204Z,10.90
2022-12-11T02:56:16.243Z,12.05
2022-12-11T02:58:47.704Z,10.53
2022-12-11T03:01:14.393Z,10.70
2022-12-11T03:03:40.935Z,12.65
2022-12-11T03:06:11.763Z,11.00
2022-12-11T03:08:39.354Z,10.48
2022-12-11T03:11:05.759Z,11.40
2022-12-11T03:13:32.662Z,10.80
2022-12-11T03:16:17.155Z,11.02
2022-12-11T03:18:55.529Z,10.57
2022-12-11T03:21:27.051Z,10.90
2022-12-11T03:24:10.168Z,10.63
2022-12-11T03:26:42.870Z,11.68
2022-12-11T03:29:38.008Z,10.55
2022-12-11T03:32:12.880Z,10.98
2022-12-11T03:34:55.655Z,11.27
2022-12-11T03:37:26.356Z,11.77
2022-12-11T03:39:58.894Z,11.02
2022-12-11T03:42:27.048Z,12.02
2022-12-11T03:44:55.426Z,10.27
2022-12-11T03:47:26.543Z,11.70
2022-12-11T03:49:55.815Z,11.07
2022-12-11T03:52:23.419Z,11.65
2022-12-11T03:54:50.858Z,10.65
2022-12-11T03:57:22.427Z,10.77
2022-12-11T03:59:49.862Z,11.70
2022-12-11T04:02:16.282Z,10.13
2022-12-11T04:04:42.920Z,11.40
2022-12-11T04:07:09.466Z,11.27
2022-12-11T04:09:36.528Z,10.82
2022-12-11T04:12:03.149Z,11.68
2022-12-11T04:14:47.957Z,11.03
2022-12-11T04:17:34.317Z,10.38
2022-12-11T04:20:19.018Z,11.25
2022-12-11T04:23:03.709Z,10.10
2022-12-11T04:25:30.103Z,9.80
2022-12-11T04:27:56.490Z,11.20
2022-12-11T04:30:29.296Z,11.35
2022-12-11T04:32:58.970Z,10.35
2022-12-11T04:35:25.404Z,11.60
2022-12-11T04:37:52.903Z,10.60
2022-12-11T04:40:20.350Z,10.93
2022-12-11T04:42:46.780Z,11.00
2022-12-11T04:45:13.497Z,12.15
2022-12-11T04:47:40.948Z,11.38
2022-12-11T04:50:09.397Z,12.18
2022-12-11T04:52:36.903Z,10.87
2022-12-11T04:55:05.416Z,11.63
2022-12-11T04:57:31.861Z,11.48
2022-12-11T04:59:58.321Z,10.93
2022-12-11T05:02:24.839Z,11.70
2022-12-11T05:04:51.276Z,12.13
2022-12-11T05:07:17.828Z,11.77
2022-12-11T05:09:44.260Z,10.85
2022-12-11T05:12:10.660Z,12.45
2022-12-11T05:14:37.120Z,12.00
2022-12-11T05:17:03.578Z,13.33
2022-12-11T05:19:30.038Z,11.57
2022-12-11T05:21:56.487Z,14.60
2022-12-11T05:24:22.945Z,12.35
2022-12-11T05:26:49.327Z,12.00
2022-12-11T05:29:15.714Z,11.70
2022-12-11T05:31:42.200Z,12.32
2022-12-11T05:34:08.708Z,11.50
2022-12-11T05:36:35.420Z,13.57
2022-12-11T05:39:02.455Z,11.85
2022-12-11T05:41:32.732Z,12.87
2022-12-11T05:43:59.638Z,12.82
2022-12-11T05:46:28.515Z,13.38
2022-12-11T05:48:58.291Z,12.18
2022-12-11T05:51:25.197Z,13.05
2022-12-11T05:53:52.824Z,13.10
2022-12-11T05:56:31.102Z,12.10
2022-12-11T05:58:59.153Z,11.40
2022-12-11T06:01:35.214Z,11.55
2022-12-11T06:04:03.429Z,12.30
2022-12-11T06:06:30.275Z,11.20
2022-12-11T06:08:58.805Z,12.35
2022-12-11T06:11:28.234Z,11.43
2022-12-11T06:13:55.480Z,11.02
2022-12-11T06:16:22.328Z,12.65
2022-12-11T06:18:49.072Z,11.53
2022-12-11T06:21:18.688Z,11.10
2022-12-11T06:23:46.852Z,10.32
2022-12-11T06:26:15.296Z,10.18
2022-12-11T06:28:41.738Z,11.00
2022-12-11T06:31:08.542Z,10.83
2022-12-11T06:33:35.584Z,10.73
2022-12-11T06:36:04.442Z,10.45
2022-12-11T06:38:31.057Z,10.35
2022-12-11T06:40:59.527Z,10.38
2022-12-11T06:43:26.111Z,10.50
2022-12-11T06:45:52.953Z,10.88
2022-12-11T06:48:20.636Z,11.35
2022-12-11T06:50:47.079Z,10.55
2022-12-11T06:53:14.925Z,9.40
2022-12-11T06:55:41.765Z,9.97
2022-12-11T06:58:08.918Z,10.32
2022-12-11T07:00:36.695Z,10.30
2022-12-11T07:03:04.006Z,10.07
2022-12-11T07:05:31.871Z,10.68
2022-12-11T07:07:58.542Z,10.50
2022-12-11T07:10:25.099Z,9.30
2022-12-11T07:12:54.566Z,9.60
2022-12-11T07:15:21.139Z,9.35
2022-12-11T07:17:47.572Z,9.43
2022-12-11T07:20:14.014Z,9.37
2022-12-11T07:22:46.031Z,9.85
2022-12-11T07:25:13.295Z,10.10
2022-12-11T07:27:39.957Z,10.85
2022-12-11T07:30:06.927Z,9.88
2022-12-11T07:32:33.507Z,9.90
2022-12-11T07:34:59.964Z,10.25
2022-12-11T07:37:26.366Z,10.85
2022-12-11T07:39:52.895Z,10.93
2022-12-11T07:42:19.288Z,11.52
2022-12-11T07:44:45.708Z,10.97
2022-12-11T07:47:12.109Z,10.68
2022-12-11T07:49:38.497Z,11.05
2022-12-11T07:52:04.984Z,10.35
2022-12-11T07:54:31.458Z,10.65
2022-12-11T07:56:57.875Z,10.63
2022-12-11T07:59:24.273Z,11.82
2022-12-11T08:01:50.684Z,10.65
2022-12-11T08:04:17.064Z,11.20
2022-12-11T08:06:43.801Z,11.25
2022-12-11T08:09:19.092Z,10.60
2022-12-11T08:11:51.398Z,11.77
2022-12-11T08:14:18.475Z,10.73
2022-12-11T08:16:45.026Z,10.27
2022-12-11T08:19:12.644Z,10.60
2022-12-11T08:21:40.164Z,10.77
2022-12-11T08:24:07.091Z,10.73
2022-12-11T08:26:33.501Z,10.95
2022-12-11T08:29:01.148Z,11.23
2022-12-11T08:31:28.233Z,11.02
2022-12-11T08:33:56.008Z,11.47
2022-12-11T08:36:23.517Z,12.00
2022-12-11T08:38:51.205Z,13.98
2022-12-11T08:41:29.372Z,11.70
2022-12-11T08:43:57.598Z,11.88
2022-12-11T08:46:26.735Z,11.80
2022-12-11T08:48:54.613Z,11.32
2022-12-11T08:51:23.736Z,12.10
2022-12-11T08:53:51.214Z,11.60
2022-12-11T08:56:20.118Z,11.40
2022-12-11T08:58:48.239Z,11.87
2022-12-11T09:01:18.143Z,11.45
2022-12-11T09:03:44.762Z,11.63
2022-12-11T09:06:14.851Z,12.82
2022-12-11T09:08:44.843Z,13.43
2022-12-11T09:11:19.692Z,13.03
2022-12-11T09:13:46.583Z,12.40
2022-12-11T09:16:16.107Z,11.75
2022-12-11T09:18:42.973Z,13.13
2022-12-11T09:21:13.530Z,13.13
2022-12-11T09:23:40.396Z,14.57
2022-12-11T09:26:12.626Z,14.07
2022-12-11T09:28:44.414Z,15.43
2022-12-11T09:31:17.892Z,13.20
2022-12-11T09:33:45.435Z,15.05
2022-12-11T09:36:12.596Z,15.20
2022-12-11T09:38:39.163Z,12.77
2022-12-11T09:41:17.583Z,12.75
2022-12-11T09:43:49.940Z,13.27
2022-12-11T09:46:17.443Z,13.75
2022-12-11T09:48:47.479Z,14.03
2022-12-11T09:51:26.175Z,13.45
2022-12-11T09:53:56.690Z,13.38
2022-12-11T09:56:31.704Z,13.27
2022-12-11T09:59:19.800Z,13.40
2022-12-11T10:01:57.754Z,13.50
2022-12-11T10:04:38.186Z,13.95
2022-12-11T10:07:39.873Z,16.80
2022-12-11T10:10:21.114Z,12.73
2022-12-11T10:13:06.709Z,11.93
2022-12-11T10:15:59.827Z,11.93
2022-12-11T10:18:29.070Z,12.80
2022-12-11T10:20:56.705Z,11.73
2022-12-11T10:23:35.523Z,12.30
2022-12-11T10:26:15.455Z,12.88
2022-12-11T10:28:42.046Z,13.43
2022-12-11T10:31:32.164Z,13.32
2022-12-11T10:34:03.809Z,12.07
2022-12-11T10:36:34.178Z,12.25
2022-12-11T10:39:01.591Z,11.60
2022-12-11T10:41:38.602Z,12.77
2022-12-11T10:44:17.453Z,11.25
2022-12-11T10:46:45.285Z,12.38
2022-12-11T10:49:32.180Z,12.18
2022-12-11T10:52:02.428Z,11.70
2022-12-11T10:54:43.464Z,12.23
2022-12-11T10:57:13.729Z,12.18
2022-12-11T10:59:42.851Z,12.35
2022-12-11T11:02:32.419Z,12.00
2022-12-11T11:05:01.104Z,12.77
2022-12-11T11:07:30.330Z,12.43
2022-12-11T11:10:11.999Z,13.10
2022-12-11T11:12:45.339Z,11.68
2022-12-11T11:15:29.368Z,13.02
2022-12-11T11:18:04.286Z,12.82
2022-12-11T11:20:34.128Z,12.70
2022-12-11T11:23:02.671Z,11.88
2022-12-11T11:25:32.747Z,12.35
2022-12-11T11:28:15.020Z,12.20
2022-12-11T11:30:42.473Z,11.95
2022-12-11T11:33:17.560Z,12.77
2022-12-11T11:35:54.305Z,12.10
2022-12-11T11:38:29.640Z,13.13
2022-12-11T11:41:05.642Z,11.90
2022-12-11T11:43:42.577Z,12.57
2022-12-11T11:46:17.753Z,13.63
2022-12-11T11:48:59.199Z,12.05
2022-12-11T11:51:36.020Z,12.38
2022-12-11T11:54:11.584Z,13.63
2022-12-11T11:56:38.746Z,13.27
2022-12-11T11:59:23.991Z,13.03
2022-12-11T12:01:53.976Z,14.02
2022-12-11T12:04:20.428Z,13.95
2022-12-11T12:07:01.990Z,13.68
2022-12-11T12:10:00.537Z,13.60
2022-12-11T12:12:57.502Z,11.90
2022-12-11T12:15:35.514Z,13.32
2022-12-11T12:18:15.653Z,13.15
2022-12-11T12:20:47.240Z,13.57
2022-12-11T12:23:48.809Z,13.05
2022-12-11T12:26:39.084Z,13.93
2022-12-11T12:29:17.643Z,13.20
2022-12-11T12:32:08.295Z,13.63
2022-12-11T12:34:43.674Z,13.90
2022-12-11T12:37:38.085Z,13.02
2022-12-11T12:40:29.440Z,13.43
2022-12-11T12:43:05.617Z,13.80
2022-12-11T12:46:23.103Z,13.57
2022-12-11T12:48:51.600Z,14.05
2022-12-11T12:51:18.522Z,13.07
2022-12-11T12:53:55.624Z,13.10
2022-12-11T12:56:23.831Z,14.13
2022-12-11T12:58:50.272Z,14.52
2022-12-11T13:01:20.863Z,14.27
2022-12-11T13:03:53.951Z,13.35
2022-12-11T13:06:42.265Z,18.43
2022-12-11T13:09:17.802Z,14.30
2022-12-11T13:11:46.009Z,14.75
2022-12-11T13:14:15.495Z,14.40
2022-12-11T13:16:44.317Z,13.88
2022-12-11T13:19:22.618Z,14.77
2022-12-11T13:22:10.828Z,12.95
2022-12-11T13:25:02.328Z,12.93
2022-12-11T13:27:34.617Z,12.23
2022-12-11T13:30:28.591Z,13.88
2022-12-11T13:33:05.812Z,13.00
2022-12-11T13:35:34.171Z,13.10
2022-12-11T13:38:21.080Z,12.43
2022-12-11T13:40:54.494Z,13.43
2022-12-11T13:43:28.023Z,12.98
2022-12-11T13:46:09.363Z,13.77
2022-12-11T13:48:40.635Z,14.10
2022-12-11T13:51:07.596Z,12.80
2022-12-11T13:53:34.029Z,12.80
2022-12-11T13:56:06.296Z,13.00
2022-12-11T13:58:38.887Z,12.90
2022-12-11T14:01:24.965Z,13.20
2022-12-11T14:03:55.743Z,12.18
2022-12-11T14:06:23.691Z,13.00
2022-12-11T14:08:53.434Z,13.23
2022-12-11T14:11:30.263Z,13.53
2022-12-11T14:14:03.402Z,14.13
2022-12-11T14:16:30.558Z,13.35
2022-12-11T14:19:05.298Z,13.65
2022-12-11T14:21:31.796Z,13.27
2022-12-11T14:24:00.887Z,13.07
2022-12-11T14:26:32.304Z,12.85
2022-12-11T14:28:58.726Z,13.82
2022-12-11T14:31:30.251Z,19.33
2022-12-11T14:34:11.809Z,14.65
2022-12-11T14:36:41.344Z,13.53
2022-12-11T14:39:16.619Z,13.23
2022-12-11T14:41:50.472Z,14.57
2022-12-11T14:44:19.896Z,12.98
2022-12-11T14:46:50.220Z,13.65
2022-12-11T14:49:36.674Z,13.70
2022-12-11T14:52:04.470Z,14.23
2022-12-11T14:54:43.172Z,14.07
2022-12-11T14:57:20.021Z,14.07
2022-12-11T14:59:49.102Z,13.43
2022-12-11T15:02:32.429Z,13.33
2022-12-11T15:05:18.008Z,13.70
2022-12-11T15:08:10.318Z,13.88
2022-12-11T15:10:42.412Z,14.32
2022-12-11T15:13:09.942Z,14.55
2022-12-11T15:15:45.511Z,13.97
2022-12-11T15:18:32.761Z,14.35
2022-12-11T15:21:09.498Z,13.73
2022-12-11T15:23:51.903Z,14.73
2022-12-11T15:26:19.862Z,13.38
2022-12-11T15:28:46.972Z,14.30
2022-12-11T15:31:26.965Z,15.27
2022-12-11T15:33:54.033Z,15.18
2022-12-11T15:36:40.718Z,15.38
2022-12-11T15:39:09.361Z,15.43
2022-12-11T15:41:36.515Z,14.47
2022-12-11T15:44:04.181Z,14.43
2022-12-11T15:46:35.627Z,16.02
2022-12-11T15:49:02.086Z,15.98
2022-12-11T15:51:29.122Z,13.85
2022-12-11T15:53:55.516Z,15.53
2022-12-11T15:56:21.961Z,14.48
2022-12-11T15:58:49.371Z,15.40
2022-12-11T16:01:15.843Z,14.27
2022-12-11T16:03:42.266Z,14.07
2022-12-11T16:06:13.328Z,14.60
2022-12-11T16:08:39.714Z,15.45
2022-12-11T16:11:06.123Z,13.70
2022-12-11T16:13:32.550Z,14.73
2022-12-11T16:15:59.047Z,14.13
2022-12-11T16:18:26.448Z,13.40
2022-12-11T16:20:53.871Z,14.05
2022-12-11T16:23:20.947Z,13.07
2022-12-11T16:25:47.852Z,13.77
2022-12-11T16:28:16.499Z,14.73
2022-12-11T16:30:43.563Z,13.83
2022-12-11T16:33:13.137Z,14.38
2022-12-11T16:35:40.687Z,14.02
2022-12-11T16:38:07.768Z,14.20
2022-12-11T16:40:34.219Z,14.65
2022-12-11T16:43:00.655Z,14.57
2022-12-11T16:45:27.136Z,14.75
2022-12-11T16:47:53.803Z,15.10
2022-12-11T16:50:20.289Z,13.40
2022-12-11T16:52:47.175Z,15.38
2022-12-11T16:55:14.759Z,14.67
2022-12-11T16:57:41.952Z,17.48
2022-12-11T17:00:12.043Z,15.40
2022-12-11T17:02:38.628Z,15.52
2022-12-11T17:05:05.432Z,14.00
2022-12-11T17:07:32.779Z,14.37
2022-12-11T17:10:00.776Z,15.30
2022-12-11T17:12:28.002Z,16.55
2022-12-11T17:14:55.944Z,15.48
2022-12-11T17:17:22.415Z,15.90
2022-12-11T17:19:49.166Z,14.77
2022-12-11T17:22:15.652Z,15.25
2022-12-11T17:24:42.059Z,14.10
2022-12-11T17:27:08.485Z,15.70
2022-12-11T17:29:34.920Z,14.70
2022-12-11T17:32:03.180Z,16.87
2022-12-11T17:34:34.633Z,15.40
2022-12-11T17:37:04.218Z,15.00
2022-12-11T17:39:30.802Z,15.82
2022-12-11T17:41:57.297Z,15.70
2022-12-11T17:44:24.258Z,15.90
2022-12-11T17:46:50.738Z,15.18
2022-12-11T17:49:17.164Z,15.80
2022-12-11T17:51:43.633Z,16.65
2022-12-11T17:54:10.071Z,15.35
2022-12-11T17:56:36.834Z,16.00
2022-12-11T17:59:03.694Z,15.30
2022-12-11T18:01:30.272Z,15.02
2022-12-11T18:03:56.865Z,15.10
2022-12-11T18:06:23.365Z,15.40
2022-12-11T18:08:49.772Z,15.03
2022-12-11T18:11:18.809Z,15.02
2022-12-11T18:13:46.255Z,15.40
2022-12-11T18:16:19.275Z,14.52
2022-12-11T18:18:47.066Z,14.98
2022-12-11T18:21:18.615Z,16.07
2022-12-11T18:23:45.186Z,14.77
2022-12-11T18:26:14.408Z,16.23
2022-12-11T18:28:41.736Z,17.60
2022-12-11T18:31:09.718Z,15.80
2022-12-11T18:33:38.213Z,15.37
2022-12-11T18:36:05.626Z,15.00
2022-12-11T18:38:32.091Z,15.65
2022-12-11T18:40:58.472Z,15.15
2022-12-11T18:43:24.872Z,15.25
2022-12-11T18:45:51.888Z,14.80
2022-12-11T18:48:18.303Z,14.40
2022-12-11T18:50:49.569Z,13.70
2022-12-11T18:53:18.026Z,14.90
2022-12-11T18:55:47.232Z,13.95
2022-12-11T18:58:15.711Z,15.57
2022-12-11T19:00:42.988Z,14.60
2022-12-11T19:03:10.826Z,13.82
2022-12-11T19:05:40.284Z,16.52
2022-12-11T19:08:06.834Z,15.35
2022-12-11T19:10:33.286Z,15.30
2022-12-11T19:12:59.857Z,13.68
2022-12-11T19:15:27.605Z,14.35
2022-12-11T19:17:54.017Z,15.05
2022-12-11T19:23:07.599Z,13.87
2022-12-11T19:25:34.007Z,15.13
2022-12-11T19:28:01.068Z,16.70
2022-12-11T19:30:27.576Z,14.50
2022-12-11T19:32:54.013Z,14.18
2022-12-11T19:35:20.652Z,14.30
2022-12-11T19:37:47.149Z,14.93
2022-12-11T19:40:14.477Z,14.80
2022-12-11T19:42:41.179Z,14.57
2022-12-11T19:45:07.747Z,14.48
2022-12-11T19:47:34.910Z,15.27
2022-12-11T19:50:01.549Z,14.80
2022-12-11T19:52:28.031Z,14.32
2022-12-11T19:54:54.470Z,16.15
2022-12-11T19:57:20.856Z,15.45
2022-12-11T19:59:49.377Z,14.87
2022-12-11T20:02:19.432Z,15.40
2022-12-11T20:04:45.849Z,14.55
2022-12-11T20:07:12.299Z,14.75
2022-12-11T20:09:38.739Z,15.25
2022-12-11T20:12:10.147Z,15.13
2022-12-11T20:14:37.685Z,14.55
2022-12-11T20:17:14.304Z,15.75
2022-12-11T20:19:41.474Z,13.98
2022-12-11T20:22:09.058Z,14.38
2022-12-11T20:24:35.904Z,14.73
2022-12-11T20:27:02.364Z,15.50
2022-12-11T20:29:28.865Z,15.45
2022-12-11T20:31:55.333Z,14.80
2022-12-11T20:34:21.816Z,15.18
2022-12-11T20:36:48.650Z,14.67
2022-12-11T20:39:15.633Z,17.35
2022-12-11T20:41:42.140Z,15.98
2022-12-11T20:44:08.599Z,15.57
2022-12-11T20:46:35.066Z,15.68
2022-12-11T20:49:01.687Z,16.37
2022-12-11T20:51:29.025Z,17.10
2022-12-11T20:53:59.633Z,16.02
2022-12-11T20:56:29.257Z,15.75
2022-12-11T20:58:56.439Z,15.55
2022-12-11T21:01:24.556Z,15.03
2022-12-11T21:03:52.962Z,15.70
2022-12-11T21:06:26.404Z,15.77
2022-12-11T21:08:53.408Z,16.08
2022-12-11T21:11:20.102Z,15.32
2022-12-11T21:13:46.609Z,14.97
2022-12-11T21:16:13.244Z,14.80
2022-12-11T21:18:40.120Z,15.98
2022-12-11T21:21:06.957Z,16.40
2022-12-11T21:23:33.976Z,15.43
2022-12-11T21:26:00.565Z,15.53
2022-12-11T21:28:30.633Z,16.00
2022-12-11T21:31:13.202Z,16.35
2022-12-11T21:33:39.680Z,15.15
2022-12-11T21:36:07.255Z,15.93
2022-12-11T21:38:33.654Z,14.80
2022-12-11T21:41:07.357Z,15.35
2022-12-11T21:43:33.790Z,15.30
2022-12-11T21:46:01.693Z,16.05
2022-12-11T21:48:28.960Z,14.60
2022-12-11T21:50:55.531Z,16.00
2022-12-11T21:53:21.979Z,14.00
2022-12-11T21:55:48.373Z,15.68
2022-12-11T21:58:14.778Z,15.18
2022-12-11T22:00:41.224Z,15.80
2022-12-11T22:03:07.739Z,15.53
2022-12-11T22:05:34.164Z,15.60
2022-12-11T22:08:00.679Z,15.00
2022-12-11T22:10:28.486Z,16.40
2022-12-11T22:12:55.119Z,14.88
2022-12-11T22:15:21.592Z,15.77
2022-12-11T22:17:47.998Z,15.23
2022-12-11T22:20:14.604Z,15.40
2022-12-11T22:22:41.080Z,14.85
2022-12-11T22:25:07.909Z,15.63
2022-12-11T22:27:34.891Z,14.67
2022-12-11T22:30:01.332Z,14.38
2022-12-11T22:32:27.800Z,14.02
2022-12-11T22:34:56.273Z,13.65
2022-12-11T22:37:22.755Z,13.55
2022-12-11T22:39:49.399Z,14.83
2022-12-11T22:42:15.915Z,14.05
2022-12-11T22:44:42.346Z,15.27
2022-12-11T22:47:08.776Z,14.98
2022-12-11T22:49:36.081Z,14.65
2022-12-11T22:52:02.632Z,15.00
2022-12-11T22:54:29.013Z,15.13
2022-12-11T22:56:55.473Z,14.77
2022-12-11T22:59:23.189Z,14.18
2022-12-11T23:01:49.588Z,14.98
2022-12-11T23:04:16.000Z,13.60
2022-12-11T23:06:42.458Z,14.70
2022-12-11T23:09:09.030Z,14.25
2022-12-11T23:11:37.341Z,13.88
2022-12-11T23:14:05.416Z,14.85
2022-12-11T23:16:32.148Z,15.43
2022-12-11T23:18:58.821Z,14.35
2022-12-11T23:21:26.879Z,15.38
2022-12-11T23:23:54.346Z,15.60
2022-12-11T23:26:21.670Z,15.02
2022-12-11T23:28:49.158Z,15.27
2022-12-11T23:31:16.845Z,14.10
2022-12-11T23:33:43.287Z,14.10
2022-12-11T23:36:10.250Z,13.82
2022-12-11T23:38:37.505Z,14.63
2022-12-11T23:41:05.099Z,15.67
2022-12-11T23:43:31.938Z,14.52
2022-12-11T23:45:58.429Z,14.63
2022-12-11T23:48:24.851Z,13.73
2022-12-11T23:50:51.395Z,13.88
2022-12-11T23:53:17.815Z,14.17
2022-12-11T23:55:45.319Z,13.93
2022-12-11T23:58:12.561Z,13.35
